createdAt,value
2023-02-01T00:01:11.387Z,3.15
2023-02-01T00:03:39.148Z,3.14
2023-02-01T00:06:06.676Z,3.09
2023-02-01T00:08:34.370Z,3.03
2023-02-01T00:11:10.973Z,3.06
2023-02-01T00:13:42.117Z,3.05
2023-02-01T00:16:20.718Z,3.07
2023-02-01T00:18:51.974Z,3.06
2023-02-01T00:21:22.051Z,3.05
2023-02-01T00:23:49.730Z,3.09
2023-02-01T00:26:34.432Z,3.10
2023-02-01T00:29:11.758Z,3.08
2023-02-01T00:31:39.142Z,3.08
2023-02-01T00:34:09.695Z,3.09
2023-02-01T00:36:36.900Z,3.09
2023-02-01T00:39:04.728Z,3.09
2023-02-01T00:41:32.161Z,3.07
2023-02-01T00:43:59.539Z,3.09
2023-02-01T00:46:26.951Z,3.04
2023-02-01T00:48:55.600Z,3.01
2023-02-01T00:51:27.166Z,3.09
2023-02-01T00:53:55.259Z,3.09
2023-02-01T00:56:22.793Z,3.01
2023-02-01T00:58:50.575Z,3.02
2023-02-01T01:01:27.913Z,2.99
2023-02-01T01:04:00.278Z,2.93
2023-02-01T01:06:30.965Z,2.96
2023-02-01T01:09:02.628Z,3.00
2023-02-01T01:11:34.252Z,2.93
2023-02-01T01:14:04.521Z,2.92
2023-02-01T01:16:33.749Z,2.97
2023-02-01T01:19:02.946Z,2.99
2023-02-01T01:21:31.263Z,3.01
2023-02-01T01:23:59.569Z,3.04
2023-02-01T01:26:29.982Z,3.12
2023-02-01T01:29:00.510Z,3.14
2023-02-01T01:31:29.995Z,3.14
2023-02-01T01:34:00.300Z,3.16
2023-02-01T01:36:30.646Z,3.17
2023-02-01T01:38:58.368Z,3.21
2023-02-01T01:41:32.198Z,3.32
2023-02-01T01:44:58.578Z,3.23
2023-02-01T01:47:34.439Z,3.26
2023-02-01T01:50:08.797Z,3.28
2023-02-01T01:52:41.166Z,3.25
2023-02-01T01:55:10.892Z,3.21
2023-02-01T01:57:45.206Z,3.16
2023-02-01T02:00:18.025Z,3.07
2023-02-01T02:02:54.157Z,3.02
2023-02-01T02:05:22.777Z,3.01
2023-02-01T02:07:53.853Z,2.99
2023-02-01T02:10:21.804Z,2.84
2023-02-01T02:12:50.004Z,2.80
2023-02-01T02:15:18.595Z,2.69
2023-02-01T02:18:03.548Z,2.72
2023-02-01T02:21:04.597Z,2.63
2023-02-01T02:24:01.096Z,2.63
2023-02-01T02:26:48.009Z,2.57
2023-02-01T02:29:42.809Z,2.53
2023-02-01T02:32:50.784Z,2.56
2023-02-01T02:35:52.663Z,2.55
2023-02-01T02:38:45.623Z,2.51
2023-02-01T02:41:52.883Z,2.51
2023-02-01T02:45:16.954Z,2.51
2023-02-01T02:48:22.169Z,2.41
2023-02-01T02:51:27.572Z,2.44
2023-02-01T02:54:22.424Z,2.38
2023-02-01T02:57:13.092Z,2.33
2023-02-01T03:00:04.121Z,2.29
2023-02-01T03:02:54.214Z,2.36
2023-02-01T03:05:22.279Z,2.30
2023-02-01T03:08:14.034Z,2.34
2023-02-01T03:11:07.711Z,2.32
2023-02-01T03:13:53.519Z,2.23
2023-02-01T03:16:32.811Z,2.20
2023-02-01T03:19:22.955Z,2.20
2023-02-01T03:22:06.872Z,2.09
2023-02-01T03:24:40.002Z,2.04
2023-02-01T03:27:33.769Z,2.00
2023-02-01T03:30:25.339Z,2.03
2023-02-01T03:33:02.625Z,1.99
2023-02-01T03:36:08.851Z,2.02
2023-02-01T03:38:53.335Z,2.06
2023-02-01T03:41:47.599Z,2.08
2023-02-01T03:44:38.939Z,2.03
2023-02-01T03:47:17.301Z,2.08
2023-02-01T03:49:55.375Z,2.03
2023-02-01T03:52:31.978Z,2.03
2023-02-01T03:55:01.390Z,2.00
2023-02-01T03:57:35.850Z,2.03
2023-02-01T04:00:12.706Z,1.98
2023-02-01T04:02:43.201Z,2.00
2023-02-01T04:05:10.679Z,2.01
2023-02-01T04:07:44.881Z,2.01
2023-02-01T04:10:13.316Z,2.01
2023-02-01T04:12:42.433Z,1.99
2023-02-01T04:15:10.179Z,1.98
2023-02-01T04:20:05.635Z,2.01
2023-02-01T04:22:33.506Z,2.05
2023-02-01T04:25:00.756Z,2.06
2023-02-01T04:27:28.312Z,2.06
2023-02-01T04:29:58.455Z,2.00
2023-02-01T04:32:26.194Z,1.95
2023-02-01T04:34:53.219Z,1.95
2023-02-01T04:37:20.797Z,1.88
2023-02-01T04:39:47.855Z,1.89
2023-02-01T04:42:15.619Z,1.82
2023-02-01T04:44:42.965Z,1.76
2023-02-01T04:47:10.666Z,1.75
2023-02-01T04:49:37.963Z,1.77
2023-02-01T04:52:06.045Z,1.78
2023-02-01T04:54:33.131Z,1.79
2023-02-01T04:57:00.981Z,1.75
2023-02-01T04:59:28.863Z,1.74
2023-02-01T05:01:56.543Z,1.73
2023-02-01T05:04:23.898Z,1.76
2023-02-01T05:06:51.572Z,1.82
2023-02-01T05:09:18.889Z,1.86
2023-02-01T05:12:05.029Z,1.85
2023-02-01T05:14:32.376Z,1.86
2023-02-01T05:17:00.129Z,1.90
2023-02-01T05:19:30.499Z,1.90
2023-02-01T05:21:58.497Z,1.95
2023-02-01T05:24:25.707Z,1.95
2023-02-01T05:26:53.252Z,1.96
2023-02-01T05:29:20.952Z,1.95
2023-02-01T05:31:49.414Z,1.97
2023-02-01T05:34:17.655Z,2.01
2023-02-01T05:36:45.432Z,2.03
2023-02-01T05:39:12.823Z,2.12
2023-02-01T05:41:40.181Z,2.14
2023-02-01T05:44:10.003Z,2.17
2023-02-01T05:46:38.382Z,2.16
2023-02-01T05:49:06.456Z,2.11
2023-02-01T05:51:34.750Z,2.10
2023-02-01T05:54:05.171Z,2.12
2023-02-01T05:56:33.761Z,2.14
2023-02-01T06:01:30.715Z,2.03
2023-02-01T06:03:57.924Z,2.07
2023-02-01T06:06:25.636Z,2.09
2023-02-01T06:08:52.724Z,2.12
2023-02-01T06:11:31.819Z,2.14
2023-02-01T06:14:00.267Z,2.15
2023-02-01T06:16:28.784Z,2.19
2023-02-01T06:18:56.217Z,2.23
2023-02-01T06:21:26.113Z,2.26
2023-02-01T06:23:55.105Z,2.27
2023-02-01T06:26:22.585Z,2.28
2023-02-01T06:28:50.550Z,2.31
2023-02-01T06:31:18.491Z,2.34
2023-02-01T06:33:47.878Z,2.33
2023-02-01T06:36:17.090Z,2.36
2023-02-01T06:38:44.359Z,2.37
2023-02-01T06:41:12.259Z,2.37
2023-02-01T06:43:39.955Z,2.44
2023-02-01T06:46:14.158Z,2.48
2023-02-01T06:48:41.462Z,2.54
2023-02-01T06:51:24.979Z,2.57
2023-02-01T06:53:55.238Z,2.58
2023-02-01T06:56:22.976Z,2.62
2023-02-01T06:58:51.435Z,2.65
2023-02-01T07:01:19.389Z,2.71
2023-02-01T07:03:52.312Z,2.77
2023-02-01T07:06:30.259Z,2.78
2023-02-01T07:08:58.986Z,2.81
2023-02-01T07:11:28.457Z,2.83
2023-02-01T07:13:56.039Z,2.86
2023-02-01T07:16:23.821Z,2.89
2023-02-01T07:18:53.613Z,2.95
2023-02-01T07:21:21.544Z,2.98
2023-02-01T07:23:48.937Z,3.02
2023-02-01T07:26:17.476Z,3.03
2023-02-01T07:28:44.964Z,3.06
2023-02-01T07:31:20.228Z,3.08
2023-02-01T07:33:49.109Z,3.14
2023-02-01T07:36:18.429Z,3.20
2023-02-01T07:38:48.377Z,3.22
2023-02-01T07:41:16.960Z,3.27
2023-02-01T07:43:44.737Z,3.29
2023-02-01T07:46:12.508Z,3.30
2023-02-01T07:48:39.736Z,3.31
2023-02-01T07:51:17.426Z,3.35
2023-02-01T07:53:46.083Z,3.39
2023-02-01T07:56:23.774Z,3.41
2023-02-01T07:58:53.435Z,3.44
2023-02-01T08:01:25.879Z,3.48
2023-02-01T08:04:04.233Z,3.52
2023-02-01T08:06:35.516Z,3.58
2023-02-01T08:09:05.244Z,3.61
2023-02-01T08:11:33.186Z,3.67
2023-02-01T08:14:01.055Z,3.71
2023-02-01T08:16:28.748Z,3.72
2023-02-01T08:18:56.278Z,3.77
2023-02-01T08:21:37.486Z,3.85
2023-02-01T08:24:09.346Z,3.89
2023-02-01T08:26:37.165Z,3.96
2023-02-01T08:29:06.942Z,4.02
2023-02-01T08:31:36.327Z,4.04
2023-02-01T08:34:09.448Z,4.08
2023-02-01T08:36:39.201Z,4.10
2023-02-01T08:39:09.930Z,4.08
2023-02-01T08:41:38.267Z,4.13
2023-02-01T08:44:05.759Z,4.15
2023-02-01T08:46:33.259Z,4.18
2023-02-01T08:49:00.736Z,4.18
2023-02-01T08:51:29.825Z,4.14
2023-02-01T08:53:57.125Z,4.13
2023-02-01T08:56:24.545Z,4.08
2023-02-01T08:58:52.075Z,4.13
2023-02-01T09:01:19.626Z,4.07
2023-02-01T09:03:47.079Z,4.05
2023-02-01T09:06:16.218Z,4.02
2023-02-01T09:08:44.586Z,4.02
2023-02-01T09:11:22.652Z,4.04
2023-02-01T09:13:49.953Z,4.07
2023-02-01T09:16:17.870Z,4.06
2023-02-01T09:18:56.017Z,4.09
2023-02-01T09:21:33.213Z,4.10
2023-02-01T09:24:00.333Z,4.14
2023-02-01T09:26:33.164Z,4.19
2023-02-01T09:29:04.687Z,4.24
2023-02-01T09:31:32.416Z,4.30
2023-02-01T09:33:59.612Z,4.34
2023-02-01T09:36:30.095Z,4.38
2023-02-01T09:38:59.385Z,4.44
2023-02-01T09:42:00.868Z,4.50
2023-02-01T09:44:51.179Z,4.55
2023-02-01T09:47:24.402Z,4.64
2023-02-01T09:50:03.141Z,4.69
2023-02-01T09:52:42.852Z,4.73
2023-02-01T09:55:23.299Z,4.74
2023-02-01T09:58:05.155Z,4.77
2023-02-01T10:00:40.510Z,4.75
2023-02-01T10:03:14.364Z,4.75
2023-02-01T10:06:14.787Z,4.75
2023-02-01T10:09:13.392Z,4.84
2023-02-01T10:12:14.534Z,4.89
2023-02-01T10:15:16.014Z,4.96
2023-02-01T10:18:08.423Z,5.01
2023-02-01T10:20:58.348Z,5.06
2023-02-01T10:24:01.153Z,5.03
2023-02-01T10:26:39.219Z,5.04
2023-02-01T10:29:19.768Z,5.04
2023-02-01T10:31:48.089Z,5.12
2023-02-01T10:34:34.675Z,5.19
2023-02-01T10:37:20.480Z,5.20
2023-02-01T10:39:50.831Z,5.22
2023-02-01T10:42:25.921Z,5.23
2023-02-01T10:44:57.152Z,5.27
2023-02-01T10:47:25.416Z,5.35
2023-02-01T10:50:41.663Z,5.36
2023-02-01T10:53:22.842Z,5.45
2023-02-01T10:55:54.231Z,5.47
2023-02-01T10:58:32.691Z,5.52
2023-02-01T11:01:16.988Z,5.54
2023-02-01T11:03:59.412Z,5.56
2023-02-01T11:06:36.646Z,5.61
2023-02-01T11:09:07.169Z,5.67
2023-02-01T11:11:55.811Z,5.71
2023-02-01T11:14:26.537Z,5.74
2023-02-01T11:16:56.211Z,5.75
2023-02-01T11:19:24.733Z,5.81
2023-02-01T11:21:55.634Z,5.86
2023-02-01T11:24:33.859Z,5.89
2023-02-01T11:27:06.913Z,5.86
2023-02-01T11:29:42.957Z,5.82
2023-02-01T11:32:13.872Z,5.79
2023-02-01T11:35:00.903Z,5.79
2023-02-01T11:37:38.356Z,5.73
2023-02-01T11:40:35.103Z,5.60
2023-02-01T11:43:30.112Z,5.57
2023-02-01T11:46:04.445Z,5.45
2023-02-01T11:48:34.541Z,5.45
2023-02-01T11:51:48.584Z,5.42
2023-02-01T11:54:27.778Z,5.42
2023-02-01T11:57:09.891Z,5.40
2023-02-01T11:59:56.793Z,5.43
2023-02-01T12:02:59.554Z,5.46
2023-02-01T12:05:47.663Z,5.46
2023-02-01T12:08:39.953Z,5.49
2023-02-01T12:11:49.848Z,5.50
2023-02-01T12:14:55.350Z,5.44
2023-02-01T12:18:24.745Z,5.43
2023-02-01T12:21:29.576Z,5.27
2023-02-01T12:24:49.182Z,5.25
2023-02-01T12:27:54.539Z,5.25
2023-02-01T12:30:55.006Z,5.19
2023-02-01T12:33:53.214Z,5.14
2023-02-01T12:36:50.894Z,5.08
2023-02-01T12:39:46.606Z,5.03
2023-02-01T12:42:30.409Z,5.01
2023-02-01T12:45:39.221Z,4.96
2023-02-01T12:48:36.816Z,5.02
2023-02-01T12:51:13.463Z,5.03
2023-02-01T12:53:48.980Z,5.17
2023-02-01T12:56:29.949Z,5.23
2023-02-01T12:59:03.365Z,5.27
2023-02-01T13:01:57.378Z,5.28
2023-02-01T13:04:37.520Z,5.32
2023-02-01T13:07:18.154Z,5.33
2023-02-01T13:10:05.711Z,5.34
2023-02-01T13:12:51.391Z,5.30
2023-02-01T13:15:35.061Z,5.23
2023-02-01T13:18:07.962Z,5.23
2023-02-01T13:20:48.334Z,5.32
2023-02-01T13:23:52.292Z,5.38
2023-02-01T13:26:19.458Z,5.37
2023-02-01T13:29:07.936Z,5.45
2023-02-01T13:33:51.719Z,5.42
2023-02-01T13:36:20.904Z,5.51
2023-02-01T13:39:27.677Z,5.50
2023-02-01T13:42:07.892Z,5.43
2023-02-01T13:44:43.903Z,5.46
2023-02-01T13:47:34.908Z,5.43
2023-02-01T13:50:28.202Z,5.42
2023-02-01T13:53:12.270Z,5.40
2023-02-01T13:55:44.894Z,5.42
2023-02-01T13:58:39.869Z,5.47
2023-02-01T14:01:22.469Z,5.46
2023-02-01T14:03:55.808Z,5.37
2023-02-01T14:06:28.964Z,5.38
2023-02-01T14:09:15.316Z,5.38
2023-02-01T14:11:46.937Z,5.40
2023-02-01T14:14:34.367Z,5.39
2023-02-01T14:17:01.523Z,5.40
2023-02-01T14:19:33.212Z,5.38
2023-02-01T14:22:21.569Z,5.37
2023-02-01T14:24:58.120Z,5.38
2023-02-01T14:27:36.756Z,5.36
2023-02-01T14:30:15.309Z,5.21
2023-02-01T14:32:47.714Z,5.13
2023-02-01T14:35:26.591Z,5.12
2023-02-01T14:38:05.085Z,5.13
2023-02-01T14:40:33.072Z,5.15
2023-02-01T14:43:00.276Z,5.09
2023-02-01T14:45:28.880Z,5.01
2023-02-01T14:48:08.478Z,4.86
2023-02-01T14:50:42.032Z,4.84
2023-02-01T14:53:13.075Z,4.76
2023-02-01T14:55:50.306Z,4.73
2023-02-01T14:58:42.747Z,4.62
2023-02-01T15:01:32.801Z,4.52
2023-02-01T15:04:22.895Z,4.56
2023-02-01T15:06:53.313Z,4.56
2023-02-01T15:09:43.644Z,4.57
2023-02-01T15:12:15.919Z,4.54
2023-02-01T15:15:03.717Z,4.51
2023-02-01T15:17:34.996Z,4.47
2023-02-01T15:20:12.671Z,4.45
2023-02-01T15:22:41.139Z,4.32
2023-02-01T15:25:22.930Z,4.18
2023-02-01T15:27:50.897Z,4.23
2023-02-01T15:30:23.987Z,4.20
2023-02-01T15:32:52.892Z,4.13
2023-02-01T15:35:48.864Z,4.13
2023-02-01T15:38:25.818Z,4.13
2023-02-01T15:41:21.865Z,4.20
2023-02-01T15:43:55.420Z,4.18
2023-02-01T15:46:38.220Z,4.10
2023-02-01T15:49:26.260Z,4.13
2023-02-01T15:51:55.808Z,4.11
2023-02-01T15:54:43.893Z,4.07
2023-02-01T15:57:11.601Z,4.08
2023-02-01T15:59:45.825Z,4.04
2023-02-01T16:02:45.018Z,4.01
2023-02-01T16:05:36.984Z,3.96
2023-02-01T16:08:28.828Z,3.96
2023-02-01T16:11:15.451Z,3.93
2023-02-01T16:13:42.753Z,3.87
2023-02-01T16:16:14.817Z,3.90
2023-02-01T16:18:42.869Z,3.82
2023-02-01T16:21:10.651Z,3.77
2023-02-01T16:23:38.839Z,3.76
2023-02-01T16:26:07.512Z,3.70
2023-02-01T16:28:35.229Z,3.71
2023-02-01T16:31:03.211Z,3.78
2023-02-01T16:33:30.615Z,3.83
2023-02-01T16:36:00.983Z,3.89
2023-02-01T16:38:28.703Z,3.90
2023-02-01T16:40:58.562Z,3.91
2023-02-01T16:43:27.244Z,3.77
2023-02-01T16:46:01.345Z,3.74
2023-02-01T16:48:37.886Z,3.74
2023-02-01T16:51:11.698Z,3.77
2023-02-01T16:53:53.491Z,3.79
2023-02-01T16:56:33.029Z,3.78
2023-02-01T16:59:00.442Z,3.83
2023-02-01T17:01:30.892Z,3.87
2023-02-01T17:03:58.236Z,3.89
2023-02-01T17:06:28.429Z,3.81
2023-02-01T17:09:02.581Z,3.80
2023-02-01T17:11:33.473Z,3.81
2023-02-01T17:14:22.540Z,3.76
2023-02-01T17:16:51.475Z,3.66
2023-02-01T17:19:26.170Z,3.66
2023-02-01T17:21:59.884Z,3.72
2023-02-01T17:24:46.631Z,3.78
2023-02-01T17:27:18.124Z,3.73
2023-02-01T17:29:47.277Z,3.73
2023-02-01T17:32:23.583Z,3.70
2023-02-01T17:34:51.433Z,3.73
2023-02-01T17:37:27.272Z,3.72
2023-02-01T17:39:54.805Z,3.70
2023-02-01T17:42:24.430Z,3.60
2023-02-01T17:44:57.885Z,3.52
2023-02-01T17:47:25.321Z,3.44
2023-02-01T17:49:56.872Z,3.45
2023-02-01T17:52:26.417Z,3.46
2023-02-01T17:54:54.373Z,3.41
2023-02-01T17:57:22.613Z,3.37
2023-02-01T17:59:49.811Z,3.46
2023-02-01T18:02:23.046Z,3.39
2023-02-01T18:04:51.888Z,3.39
2023-02-01T18:07:19.952Z,3.42
2023-02-01T18:09:47.188Z,3.40
2023-02-01T18:12:25.737Z,3.40
2023-02-01T18:14:53.061Z,3.44
2023-02-01T18:17:21.147Z,3.45
2023-02-01T18:19:48.452Z,3.40
2023-02-01T18:22:20.108Z,3.41
2023-02-01T18:24:47.592Z,3.41
2023-02-01T18:27:15.327Z,3.42
2023-02-01T18:29:42.696Z,3.44
2023-02-01T18:32:11.337Z,3.41
2023-02-01T18:34:39.365Z,3.44
2023-02-01T18:37:07.152Z,3.33
2023-02-01T18:39:34.182Z,3.35
2023-02-01T18:42:02.505Z,3.36
2023-02-01T18:44:29.888Z,3.40
2023-02-01T18:46:57.333Z,3.35
2023-02-01T18:49:24.547Z,3.36
2023-02-01T18:51:53.046Z,3.36
2023-02-01T18:54:20.418Z,3.42
2023-02-01T18:56:48.088Z,3.36
2023-02-01T18:59:39.925Z,3.35
2023-02-01T19:02:10.674Z,3.28
2023-02-01T19:04:37.882Z,3.34
2023-02-01T19:07:05.432Z,3.42
2023-02-01T19:09:35.302Z,3.41
2023-02-01T19:12:05.311Z,3.38
2023-02-01T19:14:32.504Z,3.38
2023-02-01T19:17:00.622Z,3.42
2023-02-01T19:19:28.616Z,3.45
2023-02-01T19:21:56.220Z,3.51
2023-02-01T19:24:27.990Z,3.51
2023-02-01T19:26:57.118Z,3.51
2023-02-01T19:29:24.556Z,3.51
2023-02-01T19:31:52.055Z,3.52
2023-02-01T19:34:19.424Z,3.47
2023-02-01T19:36:47.905Z,3.51
2023-02-01T19:39:15.450Z,3.52
2023-02-01T19:41:43.105Z,3.51
2023-02-01T19:44:10.149Z,3.50
2023-02-01T19:46:38.568Z,3.49
2023-02-01T19:49:07.792Z,3.39
2023-02-01T19:51:35.252Z,3.29
2023-02-01T19:54:02.853Z,3.26
2023-02-01T19:56:30.245Z,3.32
2023-02-01T19:58:57.547Z,3.39
2023-02-01T20:01:25.452Z,3.34
2023-02-01T20:03:53.344Z,3.34
2023-02-01T20:06:21.161Z,3.44
2023-02-01T20:08:49.042Z,3.49
2023-02-01T20:11:16.574Z,3.50
2023-02-01T20:13:43.551Z,3.51
2023-02-01T20:16:11.076Z,3.49
2023-02-01T20:18:38.868Z,3.51
2023-02-01T20:21:06.476Z,3.54
2023-02-01T20:23:33.858Z,3.51
2023-02-01T20:26:11.578Z,3.36
2023-02-01T20:28:38.991Z,3.28
2023-02-01T20:31:08.102Z,3.32
2023-02-01T20:33:35.336Z,3.33
2023-02-01T20:36:04.493Z,3.36
2023-02-01T20:38:31.879Z,3.42
2023-02-01T20:41:15.712Z,3.42
2023-02-01T20:43:42.968Z,3.40
2023-02-01T20:46:10.502Z,3.39
2023-02-01T20:48:38.195Z,3.39
2023-02-01T20:51:06.037Z,3.37
2023-02-01T20:53:33.476Z,3.37
2023-02-01T20:56:01.378Z,3.40
2023-02-01T20:58:30.094Z,3.41
2023-02-01T21:00:57.579Z,3.41
2023-02-01T21:03:25.416Z,3.42
2023-02-01T21:05:57.454Z,3.44
2023-02-01T21:08:27.314Z,3.44
2023-02-01T21:11:13.853Z,3.46
2023-02-01T21:13:50.706Z,3.50
2023-02-01T21:16:21.857Z,3.53
2023-02-01T21:18:51.883Z,3.54
2023-02-01T21:21:20.031Z,3.54
2023-02-01T21:23:48.575Z,3.56
2023-02-01T21:26:24.101Z,3.56
2023-02-01T21:28:55.282Z,3.59
2023-02-01T21:31:25.930Z,3.61
2023-02-01T21:33:53.291Z,3.62
2023-02-01T21:36:21.012Z,3.63
2023-02-01T21:38:51.399Z,3.63
2023-02-01T21:41:40.386Z,3.62
2023-02-01T21:44:09.142Z,3.60
2023-02-01T21:46:36.754Z,3.53
2023-02-01T21:49:06.383Z,3.51
2023-02-01T21:51:37.862Z,3.44
2023-02-01T21:54:10.307Z,3.43
2023-02-01T21:56:39.024Z,3.34
2023-02-01T21:59:07.836Z,3.37
2023-02-01T22:01:37.512Z,3.38
2023-02-01T22:04:05.069Z,3.44
2023-02-01T22:06:38.565Z,3.44
2023-02-01T22:09:06.716Z,3.45
2023-02-01T22:11:34.148Z,3.40
2023-02-01T22:14:02.756Z,3.35
2023-02-01T22:16:31.693Z,3.42
2023-02-01T22:18:59.198Z,3.45
2023-02-01T22:21:27.392Z,3.45
2023-02-01T22:23:57.548Z,3.44
2023-02-01T22:26:27.422Z,3.53
2023-02-01T22:28:55.052Z,3.54
2023-02-01T22:31:23.935Z,3.55
2023-02-01T22:33:51.188Z,3.57
2023-02-01T22:36:18.997Z,3.58
2023-02-01T22:38:48.689Z,3.58
2023-02-01T22:41:16.712Z,3.58
2023-02-01T22:43:45.272Z,3.56
2023-02-01T22:46:18.615Z,3.58
2023-02-01T22:48:47.261Z,3.58
2023-02-01T22:51:29.644Z,3.58
2023-02-01T22:53:57.884Z,3.46
2023-02-01T22:56:30.178Z,3.38
2023-02-01T22:59:00.665Z,3.29
2023-02-01T23:01:29.734Z,3.28
2023-02-01T23:04:00.958Z,3.28
2023-02-01T23:06:32.388Z,3.32
2023-02-01T23:09:11.367Z,3.27
2023-02-01T23:11:39.595Z,3.23
2023-02-01T23:14:07.776Z,3.21
2023-02-01T23:16:35.455Z,3.20
2023-02-01T23:19:02.898Z,3.17
2023-02-01T23:21:30.371Z,3.22
2023-02-01T23:24:04.651Z,3.21
2023-02-01T23:26:33.406Z,3.24
2023-02-01T23:29:02.694Z,3.21
2023-02-01T23:31:34.961Z,3.24
2023-02-01T23:34:04.971Z,3.27
2023-02-01T23:36:33.708Z,3.24
2023-02-01T23:39:02.947Z,3.24
2023-02-01T23:41:31.722Z,3.29
2023-02-01T23:43:58.919Z,3.26
2023-02-01T23:46:39.158Z,3.26
2023-02-01T23:49:08.928Z,3.31
2023-02-01T23:51:37.455Z,3.26
2023-02-01T23:54:11.351Z,3.25
2023-02-01T23:56:43.201Z,3.28
2023-02-01T23:59:16.544Z,3.29
